Time;durP1;ratioP1;P1;durP2;ratioP2;P2;SDS_P1;SDS_P2;PMS_P1;PMS_P2;Temp;Humidity;BMP_temperature;BMP_pressure;BME280_temperature;BME280_humidity;BME280_pressure;Samples;Min_cycle;Max_cycle;Signal;HPM_P1;HPM_P2
2022/04/28 00:01:04;;;;;;;0.70;0.70;;;;;;;;;;6159451;23;20176;-85
2022/04/28 00:03:32;;;;;;;1.27;1.27;;;;;;;;;;6159308;23;20196;-85
2022/04/28 00:06:02;;;;;;;0.97;0.97;;;;;;;;;;6185363;23;20202;-85
2022/04/28 00:08:31;;;;;;;1.63;1.53;;;;;;;;;;6185189;23;20268;-85
2022/04/28 00:11:00;;;;;;;0.97;0.97;;;;;;;;;;6159145;23;20178;-85
2022/04/28 00:13:28;;;;;;;0.93;0.93;;;;;;;;;;6158516;23;20174;-85
2022/04/28 00:15:57;;;;;;;1.70;1.60;;;;;;;;;;6185306;23;20176;-84
2022/04/28 00:18:25;;;;;;;1.47;1.47;;;;;;;;;;6183912;23;20177;-85
2022/04/28 00:20:53;;;;;;;1.00;1.00;;;;;;;;;;6184127;23;20177;-85
2022/04/28 00:23:23;;;;;;;1.23;1.23;;;;;;;;;;6185322;23;20223;-85
2022/04/28 00:25:51;;;;;;;1.47;1.47;;;;;;;;;;6185473;23;20179;-85
2022/04/28 00:28:20;;;;;;;1.23;1.23;;;;;;;;;;6159348;23;20178;-85
2022/04/28 00:30:49;;;;;;;0.80;0.80;;;;;;;;;;6158874;23;20177;-84
2022/04/28 00:33:18;;;;;;;26.13;2.30;;;;;;;;;;6161234;23;20288;-85
2022/04/28 00:35:46;;;;;;;1.40;1.40;;;;;;;;;;6187142;23;20173;-84
2022/04/28 00:38:15;;;;;;;2.43;1.73;;;;;;;;;;6187186;23;20171;-85
2022/04/28 00:40:45;;;;;;;2.00;1.90;;;;;;;;;;6161385;23;20187;-85
2022/04/28 00:43:19;;;;;;;1.73;1.40;;;;;;;;;;6187044;23;20173;-85
2022/04/28 00:45:47;;;;;;;0.90;0.90;;;;;;;;;;6161164;23;20180;-85
2022/04/28 00:51:02;;;;;;;1.30;1.30;;;;;;;;;;6187498;23;20192;-85
2022/04/28 00:53:31;;;;;;;0.90;0.90;;;;;;;;;;6161085;23;20175;-85
2022/04/28 00:56:01;;;;;;;1.37;1.27;;;;;;;;;;6161327;23;20174;-85
2022/04/28 00:58:30;;;;;;;0.70;0.70;;;;;;;;;;6187828;23;20184;-85
2022/04/28 01:00:58;;;;;;;1.07;1.07;;;;;;;;;;6160786;23;20177;-85
2022/04/28 01:03:30;;;;;;;0.80;0.80;;;;;;;;;;6160800;23;20243;-84
2022/04/28 01:05:59;;;;;;;1.70;1.53;;;;;;;;;;6160657;23;20284;-85
2022/04/28 01:08:28;;;;;;;1.80;1.30;;;;;;;;;;6160730;23;20208;-85
2022/04/28 01:10:57;;;;;;;1.47;1.37;;;;;;;;;;6187102;23;20169;-85
2022/04/28 01:13:26;;;;;;;2.23;2.03;;;;;;;;;;6160734;23;20192;-85
2022/04/28 01:15:55;;;;;;;1.70;1.03;;;;;;;;;;6186882;23;20177;-85
2022/04/28 01:18:23;;;;;;;2.67;2.47;;;;;;;;;;6161035;23;20235;-85
2022/04/28 01:20:52;;;;;;;0.70;0.70;;;;;;;;;;6187229;23;20172;-85
2022/04/28 01:23:21;;;;;;;2.90;1.63;;;;;;;;;;6160592;23;20278;-85
2022/04/28 01:25:50;;;;;;;1.20;1.20;;;;;;;;;;6186775;23;20177;-85
2022/04/28 01:28:18;;;;;;;1.70;1.60;;;;;;;;;;6160557;23;20216;-85
2022/04/28 01:30:46;;;;;;;0.90;0.90;;;;;;;;;;6186703;23;20232;-85
2022/04/28 01:33:15;;;;;;;2.20;2.10;;;;;;;;;;6185535;23;20193;-85
2022/04/28 01:35:43;;;;;;;1.20;1.20;;;;;;;;;;6185944;23;20184;-85
2022/04/28 01:38:11;;;;;;;2.67;2.23;;;;;;;;;;6160186;23;20225;-85
2022/04/28 01:40:41;;;;;;;1.53;1.43;;;;;;;;;;6160530;23;20175;-84
2022/04/28 01:43:09;;;;;;;1.40;1.40;;;;;;;;;;6159946;23;20227;-85
2022/04/28 01:45:38;;;;;;;2.50;2.40;;;;;;;;;;6186305;23;20231;-85
2022/04/28 01:48:06;;;;;;;2.37;2.27;;;;;;;;;;6160460;23;20198;-85
2022/04/28 01:50:34;;;;;;;2.40;1.30;;;;;;;;;;6185056;23;20184;-85
2022/04/28 01:55:50;;;;;;;1.33;1.33;;;;;;;;;;6160711;23;20175;-84
2022/04/28 01:58:19;;;;;;;1.07;1.07;;;;;;;;;;6186280;23;20173;-85
2022/04/28 02:00:47;;;;;;;1.87;1.77;;;;;;;;;;6160558;23;20173;-85
2022/04/28 02:03:16;;;;;;;2.63;2.43;;;;;;;;;;6159985;23;20195;-85
2022/04/28 02:05:44;;;;;;;2.60;2.50;;;;;;;;;;6160295;23;20198;-85
2022/04/28 02:08:13;;;;;;;1.83;1.73;;;;;;;;;;6185914;23;20200;-84
2022/04/28 02:10:41;;;;;;;2.87;1.40;;;;;;;;;;6160554;23;20179;-85
2022/04/28 02:13:11;;;;;;;1.63;1.60;;;;;;;;;;6160369;23;20208;-84
2022/04/28 02:15:39;;;;;;;1.53;1.53;;;;;;;;;;6160597;23;20182;-85
2022/04/28 02:18:07;;;;;;;1.00;1.00;;;;;;;;;;6160073;23;20176;-85
2022/04/28 02:20:37;;;;;;;1.33;1.23;;;;;;;;;;6160226;23;20181;-85
2022/04/28 02:23:05;;;;;;;1.00;1.00;;;;;;;;;;6186300;23;20176;-84
2022/04/28 02:25:33;;;;;;;0.70;0.70;;;;;;;;;;6186357;23;20232;-85
2022/04/28 02:28:02;;;;;;;1.00;1.00;;;;;;;;;;6160032;23;20185;-85
2022/04/28 02:30:31;;;;;;;2.37;1.47;;;;;;;;;;6160150;23;20180;-84
2022/04/28 02:33:12;;;;;;;1.50;1.50;;;;;;;;;;6186143;23;20195;-85
2022/04/28 02:35:40;;;;;;;1.50;1.03;;;;;;;;;;6185936;23;20212;-85
2022/04/28 02:38:09;;;;;;;1.10;1.10;;;;;;;;;;6186319;23;20178;-85
2022/04/28 02:40:37;;;;;;;1.70;1.60;;;;;;;;;;6159796;23;20176;-85
2022/04/28 02:43:06;;;;;;;3.10;1.47;;;;;;;;;;6159951;23;20172;-85
2022/04/28 02:45:35;;;;;;;1.63;1.63;;;;;;;;;;6185761;23;20178;-84
2022/04/28 02:48:04;;;;;;;0.97;0.97;;;;;;;;;;6160001;23;20181;-85
2022/04/28 02:50:32;;;;;;;1.53;1.53;;;;;;;;;;6159661;23;20208;-85
2022/04/28 02:53:01;;;;;;;0.93;0.93;;;;;;;;;;6186101;23;20220;-85
2022/04/28 02:55:29;;;;;;;0.70;0.70;;;;;;;;;;6159693;23;20227;-85
2022/04/28 02:57:57;;;;;;;0.70;0.70;;;;;;;;;;6159737;23;20186;-85
2022/04/28 03:00:28;;;;;;;1.33;1.33;;;;;;;;;;6159920;23;20173;-85
2022/04/28 03:02:58;;;;;;;1.00;1.00;;;;;;;;;;6185915;23;20232;-85
2022/04/28 03:05:26;;;;;;;0.90;0.90;;;;;;;;;;6159722;23;20208;-85
2022/04/28 03:10:53;;;;;;;0.70;0.70;;;;;;;;;;6155142;23;20177;-84
2022/04/28 03:13:22;;;;;;;1.17;1.17;;;;;;;;;;6154648;23;20279;-85
2022/04/28 03:15:51;;;;;;;0.70;0.70;;;;;;;;;;6154520;23;20174;-85
2022/04/28 03:18:21;;;;;;;1.67;1.67;;;;;;;;;;6156111;23;20173;-84
2022/04/28 03:20:49;;;;;;;0.73;0.73;;;;;;;;;;6154723;23;20177;-85
2022/04/28 03:23:17;;;;;;;0.70;0.70;;;;;;;;;;6154823;23;20177;-85
2022/04/28 03:25:46;;;;;;;0.70;0.70;;;;;;;;;;6154336;23;20172;-85
2022/04/28 03:28:14;;;;;;;0.70;0.70;;;;;;;;;;6154887;23;20224;-85
2022/04/28 03:30:42;;;;;;;0.70;0.70;;;;;;;;;;6155812;23;20170;-85
2022/04/28 03:33:11;;;;;;;1.87;1.83;;;;;;;;;;6154562;23;20197;-85
2022/04/28 03:35:40;;;;;;;0.80;0.80;;;;;;;;;;6154411;23;20173;-85
2022/04/28 03:38:11;;;;;;;0.90;0.90;;;;;;;;;;6154663;23;20172;-85
2022/04/28 03:40:40;;;;;;;1.00;1.00;;;;;;;;;;6154451;23;20213;-84
2022/04/28 03:43:09;;;;;;;1.23;1.23;;;;;;;;;;6154841;23;20169;-84
2022/04/28 03:45:37;;;;;;;1.40;1.23;;;;;;;;;;6154615;23;20188;-84
2022/04/28 03:48:08;;;;;;;1.93;1.83;;;;;;;;;;6155945;23;20178;-85
2022/04/28 03:50:36;;;;;;;0.93;0.93;;;;;;;;;;6156045;23;20228;-84
2022/04/28 03:53:07;;;;;;;0.80;0.80;;;;;;;;;;6155597;23;20183;-85
2022/04/28 03:55:37;;;;;;;1.67;1.67;;;;;;;;;;6154634;23;20177;-84
2022/04/28 03:58:05;;;;;;;3.23;3.00;;;;;;;;;;6155959;23;20216;-85
2022/04/28 04:00:34;;;;;;;3.40;1.43;;;;;;;;;;6154478;23;20180;-85
2022/04/28 04:03:02;;;;;;;3.07;2.30;;;;;;;;;;6154455;23;20181;-85
2022/04/28 04:05:32;;;;;;;1.50;1.50;;;;;;;;;;6155867;23;20197;-85
2022/04/28 04:08:00;;;;;;;0.80;0.80;;;;;;;;;;6156123;23;20213;-85
2022/04/28 04:10:30;;;;;;;1.10;1.10;;;;;;;;;;6157518;23;20180;-85
2022/04/28 04:12:58;;;;;;;1.67;1.60;;;;;;;;;;6156189;23;20177;-84
2022/04/28 04:15:27;;;;;;;1.77;1.67;;;;;;;;;;6156216;23;20180;-85
2022/04/28 04:17:55;;;;;;;0.90;0.90;;;;;;;;;;6156374;23;20195;-84
2022/04/28 04:20:24;;;;;;;0.80;0.80;;;;;;;;;;6157846;23;20172;-84
2022/04/28 04:22:53;;;;;;;1.17;1.17;;;;;;;;;;6157670;23;20177;-85
2022/04/28 04:25:21;;;;;;;0.70;0.70;;;;;;;;;;6156175;23;20171;-85
2022/04/28 04:27:51;;;;;;;1.17;1.17;;;;;;;;;;6157904;23;20242;-85
2022/04/28 04:33:05;;;;;;;4.40;2.00;;;;;;;;;;6156726;23;20173;-85
2022/04/28 04:35:33;;;;;;;1.33;1.33;;;;;;;;;;6157803;23;20238;-85
2022/04/28 04:38:02;;;;;;;0.70;0.70;;;;;;;;;;6157342;23;20170;-84
2022/04/28 04:40:30;;;;;;;0.77;0.77;;;;;;;;;;6156369;23;20182;-85
2022/04/28 04:43:00;;;;;;;1.70;1.70;;;;;;;;;;6156073;23;20178;-85
2022/04/28 04:45:28;;;;;;;2.40;1.80;;;;;;;;;;6156263;23;20180;-85
2022/04/28 04:47:56;;;;;;;0.70;0.70;;;;;;;;;;6156084;23;20185;-84
2022/04/28 04:50:25;;;;;;;0.90;0.90;;;;;;;;;;6155883;23;20177;-85
2022/04/28 04:52:53;;;;;;;0.80;0.80;;;;;;;;;;6156436;23;20228;-85
2022/04/28 04:55:22;;;;;;;1.00;1.00;;;;;;;;;;6155969;23;20244;-85
2022/04/28 04:57:50;;;;;;;0.90;0.90;;;;;;;;;;6155799;23;20183;-85
2022/04/28 05:00:20;;;;;;;1.00;1.00;;;;;;;;;;6157356;23;20178;-85
2022/04/28 05:02:49;;;;;;;1.23;1.23;;;;;;;;;;6155782;23;20189;-85
2022/04/28 05:05:17;;;;;;;2.13;2.03;;;;;;;;;;6155982;23;20233;-84
2022/04/28 05:07:46;;;;;;;2.77;2.50;;;;;;;;;;6172331;23;20208;-84
2022/04/28 05:10:14;;;;;;;0.90;0.90;;;;;;;;;;6187265;23;20183;-85
2022/04/28 05:12:43;;;;;;;4.67;4.27;;;;;;;;;;6187499;23;20242;-85
2022/04/28 05:15:11;;;;;;;2.00;1.90;;;;;;;;;;6186559;23;20212;-85
2022/04/28 05:17:41;;;;;;;1.53;1.47;;;;;;;;;;6186543;23;20174;-84
2022/04/28 05:20:09;;;;;;;3.07;2.80;;;;;;;;;;6185116;23;20175;-85
2022/04/28 05:22:38;;;;;;;1.20;1.20;;;;;;;;;;6160746;23;20179;-85
2022/04/28 05:25:06;;;;;;;0.90;0.90;;;;;;;;;;6160972;23;20193;-85
2022/04/28 05:27:35;;;;;;;0.83;0.83;;;;;;;;;;6161151;23;20180;-85
2022/04/28 05:30:03;;;;;;;1.53;1.53;;;;;;;;;;6187257;23;20173;-85
2022/04/28 05:32:37;;;;;;;2.90;1.80;;;;;;;;;;6161298;23;20189;-85
2022/04/28 05:35:08;;;;;;;0.93;0.93;;;;;;;;;;6186937;23;20210;-85
2022/04/28 05:37:37;;;;;;;0.73;0.73;;;;;;;;;;6186588;23;20239;-85
2022/04/28 05:40:06;;;;;;;1.33;1.33;;;;;;;;;;6160638;23;20177;-85
2022/04/28 05:45:45;;;;;;;2.03;1.93;;;;;;;;;;6037858;23;20178;-84
2022/04/28 05:48:14;;;;;;;1.00;1.00;;;;;;;;;;6140196;23;20183;-83
2022/04/28 05:50:44;;;;;;;1.30;1.20;;;;;;;;;;6160140;23;20186;-81
2022/04/28 05:53:13;;;;;;;1.23;1.07;;;;;;;;;;6160081;23;20262;-82
2022/04/28 05:55:42;;;;;;;1.13;1.13;;;;;;;;;;6160426;23;20207;-81
2022/04/28 05:58:10;;;;;;;0.90;0.90;;;;;;;;;;6160309;23;20174;-80
2022/04/28 06:00:38;;;;;;;3.20;2.80;;;;;;;;;;6160142;23;20230;-81
2022/04/28 06:03:07;;;;;;;1.13;1.03;;;;;;;;;;6159963;23;20175;-82
2022/04/28 06:05:35;;;;;;;0.60;0.60;;;;;;;;;;6159864;23;20199;-81
2022/04/28 06:08:05;;;;;;;0.70;0.70;;;;;;;;;;6155352;23;20208;-81
2022/04/28 06:10:34;;;;;;;0.70;0.70;;;;;;;;;;6155432;23;20266;-81
2022/04/28 06:13:02;;;;;;;0.60;0.60;;;;;;;;;;6155414;23;20211;-81
2022/04/28 06:15:31;;;;;;;2.00;1.90;;;;;;;;;;6155614;23;20195;-81
2022/04/28 06:18:00;;;;;;;0.60;0.60;;;;;;;;;;6156291;23;20176;-81
2022/04/28 06:20:28;;;;;;;0.50;0.50;;;;;;;;;;6155049;23;20199;-81
2022/04/28 06:22:56;;;;;;;0.97;0.97;;;;;;;;;;6154805;23;20184;-81
2022/04/28 06:25:27;;;;;;;0.70;0.70;;;;;;;;;;6155102;23;20172;-81
2022/04/28 06:27:56;;;;;;;1.17;1.17;;;;;;;;;;6154911;23;20187;-82
2022/04/28 06:30:24;;;;;;;0.70;0.70;;;;;;;;;;6154757;23;20172;-82
2022/04/28 06:32:53;;;;;;;0.80;0.80;;;;;;;;;;6154888;23;20176;-81
2022/04/28 06:35:21;;;;;;;0.90;0.90;;;;;;;;;;6155242;23;20191;-82
2022/04/28 06:37:50;;;;;;;2.67;1.73;;;;;;;;;;6155085;23;20184;-82
2022/04/28 06:40:18;;;;;;;1.10;1.10;;;;;;;;;;6156644;23;20172;-82
2022/04/28 06:42:50;;;;;;;1.13;1.13;;;;;;;;;;6154725;23;20182;-83
2022/04/28 06:45:18;;;;;;;0.50;0.50;;;;;;;;;;6154881;23;20167;-82
2022/04/28 06:47:47;;;;;;;4.97;4.57;;;;;;;;;;6154775;23;20244;-82
2022/04/28 06:50:15;;;;;;;2.47;1.67;;;;;;;;;;6156030;23;20172;-81
2022/04/28 06:52:43;;;;;;;1.57;1.57;;;;;;;;;;6154312;23;20219;-81
2022/04/28 06:55:12;;;;;;;3.80;2.73;;;;;;;;;;6154496;23;20192;-82
2022/04/28 06:57:41;;;;;;;9.40;3.13;;;;;;;;;;6154663;23;20191;-82
2022/04/28 07:00:12;;;;;;;2.37;2.17;;;;;;;;;;6154839;23;20183;-82
2022/04/28 07:02:40;;;;;;;1.70;1.60;;;;;;;;;;6155149;23;20181;-82
2022/04/28 07:05:09;;;;;;;4.97;1.40;;;;;;;;;;6154787;23;20230;-82
2022/04/28 07:07:38;;;;;;;0.80;0.80;;;;;;;;;;6154615;23;20270;-82
2022/04/28 07:10:07;;;;;;;5.37;2.27;;;;;;;;;;6155423;23;20186;-82
2022/04/28 07:12:35;;;;;;;1.83;1.73;;;;;;;;;;6154600;23;20183;-81
2022/04/28 07:15:04;;;;;;;0.90;0.90;;;;;;;;;;6155062;23;20286;-81
2022/04/28 07:17:34;;;;;;;1.70;1.60;;;;;;;;;;6154583;23;20250;-81
2022/04/28 07:20:02;;;;;;;3.67;2.40;;;;;;;;;;6154550;23;20176;-82
2022/04/28 07:22:31;;;;;;;1.87;1.77;;;;;;;;;;6154673;23;20179;-83
2022/04/28 07:24:59;;;;;;;3.80;3.03;;;;;;;;;;6154793;23;20266;-82
2022/04/28 07:27:28;;;;;;;2.33;1.80;;;;;;;;;;6154376;23;20210;-81
2022/04/28 07:29:56;;;;;;;1.90;1.80;;;;;;;;;;6155922;23;20168;-81
2022/04/28 07:32:25;;;;;;;3.13;1.60;;;;;;;;;;6154455;23;20207;-83
2022/04/28 07:34:56;;;;;;;4.03;1.53;;;;;;;;;;6154431;23;20180;-82
2022/04/28 07:37:24;;;;;;;1.10;1.10;;;;;;;;;;6154282;23;20204;-82
2022/04/28 07:39:53;;;;;;;5.20;1.87;;;;;;;;;;6155837;23;20175;-82
2022/04/28 07:42:21;;;;;;;2.20;1.63;;;;;;;;;;6154554;23;20176;-83
2022/04/28 07:44:50;;;;;;;1.00;1.00;;;;;;;;;;6154408;23;20192;-82
2022/04/28 07:47:18;;;;;;;4.50;2.20;;;;;;;;;;6154433;23;20180;-82
2022/04/28 07:49:47;;;;;;;0.93;0.93;;;;;;;;;;6154398;23;20176;-82
2022/04/28 07:52:17;;;;;;;1.00;1.00;;;;;;;;;;6154529;23;20231;-83
2022/04/28 07:54:45;;;;;;;1.80;1.47;;;;;;;;;;6154499;23;20181;-82
2022/04/28 07:57:14;;;;;;;3.23;1.73;;;;;;;;;;6154462;23;20207;-83
2022/04/28 07:59:42;;;;;;;1.87;1.77;;;;;;;;;;6155496;23;20176;-82
2022/04/28 08:02:14;;;;;;;2.30;1.83;;;;;;;;;;6154332;23;20188;-82
2022/04/28 08:04:43;;;;;;;1.73;1.50;;;;;;;;;;6154266;23;20244;-82
2022/04/28 08:07:12;;;;;;;2.27;2.07;;;;;;;;;;6154168;23;20294;-82
2022/04/28 08:09:42;;;;;;;2.37;2.00;;;;;;;;;;6154885;23;20183;-82
2022/04/28 08:12:11;;;;;;;6.37;2.73;;;;;;;;;;6154429;23;20186;-82
2022/04/28 08:14:59;;;;;;;1.00;1.00;;;;;;;;;;6154557;23;20183;-82
2022/04/28 08:17:28;;;;;;;1.93;1.53;;;;;;;;;;6154377;23;20200;-82
2022/04/28 08:19:57;;;;;;;7.33;5.63;;;;;;;;;;6154757;23;20264;-83
2022/04/28 08:22:26;;;;;;;4.37;2.13;;;;;;;;;;6154520;23;20230;-82
2022/04/28 08:24:56;;;;;;;2.43;2.23;;;;;;;;;;6154535;23;20176;-81
2022/04/28 08:27:25;;;;;;;3.33;1.73;;;;;;;;;;6154393;23;20176;-82
2022/04/28 08:29:54;;;;;;;2.47;2.27;;;;;;;;;;6154532;23;20180;-81
2022/04/28 08:32:22;;;;;;;0.90;0.90;;;;;;;;;;6153931;23;20177;-82
2022/04/28 08:34:51;;;;;;;4.00;1.93;;;;;;;;;;6154196;23;20190;-83
2022/04/28 08:37:20;;;;;;;4.77;2.17;;;;;;;;;;6154094;23;20207;-83
2022/04/28 08:39:48;;;;;;;3.80;2.77;;;;;;;;;;6153911;23;20190;-82
2022/04/28 08:42:20;;;;;;;2.00;1.87;;;;;;;;;;6154431;23;20203;-83
2022/04/28 08:44:49;;;;;;;1.83;1.73;;;;;;;;;;6154283;23;20193;-82
2022/04/28 08:47:18;;;;;;;4.87;2.87;;;;;;;;;;6154414;23;20177;-82
2022/04/28 08:49:48;;;;;;;7.03;3.03;;;;;;;;;;6153993;23;20228;-82
2022/04/28 08:52:17;;;;;;;3.50;2.70;;;;;;;;;;6154589;23;20243;-82
2022/04/28 08:54:46;;;;;;;1.57;1.47;;;;;;;;;;6155957;23;20179;-82
2022/04/28 08:57:15;;;;;;;2.27;2.17;;;;;;;;;;6157698;23;20216;-83
2022/04/28 08:59:46;;;;;;;2.00;1.00;;;;;;;;;;6155925;23;20184;-82
2022/04/28 09:02:15;;;;;;;6.13;3.03;;;;;;;;;;6155996;23;20215;-82
2022/04/28 09:04:44;;;;;;;2.63;2.40;;;;;;;;;;6155829;23;20187;-82
2022/04/28 09:07:13;;;;;;;2.37;2.13;;;;;;;;;;6155711;23;20201;-82
2022/04/28 09:09:41;;;;;;;1.37;1.13;;;;;;;;;;6155892;23;20187;-83
2022/04/28 09:12:10;;;;;;;2.50;1.43;;;;;;;;;;6155803;23;20243;-81
2022/04/28 09:14:43;;;;;;;2.07;1.97;;;;;;;;;;6155838;23;20185;-82
2022/04/28 09:17:14;;;;;;;5.00;2.80;;;;;;;;;;6156006;23;20247;-81
2022/04/28 09:19:42;;;;;;;2.70;1.60;;;;;;;;;;6155377;23;20181;-82
2022/04/28 09:22:13;;;;;;;6.20;2.13;;;;;;;;;;6156133;23;20191;-82
2022/04/28 09:24:44;;;;;;;3.37;2.87;;;;;;;;;;6155581;23;20184;-82
2022/04/28 09:27:14;;;;;;;4.23;2.10;;;;;;;;;;6156143;23;20255;-82
2022/04/28 09:29:44;;;;;;;3.17;2.23;;;;;;;;;;6155533;23;20180;-83
2022/04/28 09:32:15;;;;;;;3.33;3.07;;;;;;;;;;6155821;23;20180;-81
2022/04/28 09:35:08;;;;;;;3.30;2.00;;;;;;;;;;6155089;23;20178;-81
2022/04/28 09:37:38;;;;;;;2.43;2.23;;;;;;;;;;6155801;23;20208;-82
2022/04/28 09:42:54;;;;;;;7.20;4.13;;;;;;;;;;6155816;23;20176;-81
2022/04/28 09:45:25;;;;;;;4.57;2.17;;;;;;;;;;6155518;23;20187;-82
2022/04/28 09:48:05;;;;;;;4.77;2.77;;;;;;;;;;6155663;23;20180;-82
2022/04/28 09:50:34;;;;;;;1.80;1.47;;;;;;;;;;6155638;23;20263;-82
2022/04/28 09:53:04;;;;;;;2.23;2.03;;;;;;;;;;6155121;23;20230;-82
2022/04/28 09:55:33;;;;;;;2.07;1.97;;;;;;;;;;6155199;23;20177;-80
2022/04/28 09:58:03;;;;;;;0.87;0.87;;;;;;;;;;6155393;23;20194;-82
2022/04/28 10:00:31;;;;;;;1.37;1.27;;;;;;;;;;6155671;23;20265;-82
2022/04/28 10:03:01;;;;;;;2.97;2.37;;;;;;;;;;6155459;23;20240;-82
2022/04/28 10:05:31;;;;;;;2.07;1.97;;;;;;;;;;6154589;23;20203;-82
2022/04/28 10:08:00;;;;;;;5.03;2.37;;;;;;;;;;6154816;23;20241;-82
2022/04/28 10:10:29;;;;;;;2.57;2.20;;;;;;;;;;6156486;23;20173;-82
2022/04/28 10:12:57;;;;;;;0.83;0.83;;;;;;;;;;6154732;23;20179;-82
2022/04/28 10:15:26;;;;;;;14.27;2.40;;;;;;;;;;6155067;23;20184;-81
2022/04/28 10:17:57;;;;;;;5.93;2.87;;;;;;;;;;6155013;23;20252;-82
2022/04/28 10:20:30;;;;;;;3.23;2.73;;;;;;;;;;6155254;23;20242;-82
2022/04/28 10:32:22;;;;;;;0.93;0.93;;;;;;;;;;6155407;23;20178;-83
2022/04/28 10:34:52;;;;;;;2.87;1.83;;;;;;;;;;6156431;23;20250;-83
2022/04/28 10:37:24;;;;;;;1.67;1.57;;;;;;;;;;6154082;23;20198;-83
2022/04/28 10:39:57;;;;;;;3.50;2.03;;;;;;;;;;6156357;23;20179;-83
2022/04/28 10:42:45;;;;;;;2.23;2.03;;;;;;;;;;6125676;23;20178;-82
2022/04/28 10:45:19;;;;;;;3.37;2.30;;;;;;;;;;6116229;23;20183;-82
2022/04/28 10:47:48;;;;;;;2.97;2.60;;;;;;;;;;6125571;23;20183;-82
2022/04/28 10:50:23;;;;;;;2.80;1.70;;;;;;;;;;6126731;23;20190;-82
2022/04/28 10:52:55;;;;;;;4.23;2.70;;;;;;;;;;6125709;23;20266;-82
2022/04/28 10:55:33;;;;;;;1.53;1.43;;;;;;;;;;6124853;23;20618;-81
2022/04/28 10:58:17;;;;;;;4.33;2.33;;;;;;;;;;6125155;23;20197;-82
2022/04/28 11:00:52;;;;;;;3.23;2.57;;;;;;;;;;6125028;23;20187;-82
2022/04/28 11:03:36;;;;;;;2.40;1.70;;;;;;;;;;6125433;23;20238;-82
2022/04/28 11:06:12;;;;;;;4.17;2.77;;;;;;;;;;6123999;23;20231;-82
2022/04/28 11:08:45;;;;;;;2.87;2.53;;;;;;;;;;6124805;23;20207;-82
2022/04/28 11:11:15;;;;;;;3.70;2.03;;;;;;;;;;6125211;23;20231;-82
2022/04/28 11:13:53;;;;;;;2.90;2.57;;;;;;;;;;6124918;23;20183;-82
2022/04/28 11:16:27;;;;;;;5.10;2.10;;;;;;;;;;6126552;23;20213;-83
2022/04/28 11:18:56;;;;;;;3.07;2.30;;;;;;;;;;6124799;23;20289;-82
2022/04/28 11:21:24;;;;;;;4.23;2.73;;;;;;;;;;6125424;23;20182;-83
2022/04/28 11:23:53;;;;;;;4.33;2.57;;;;;;;;;;6125204;23;20182;-82
2022/04/28 11:26:26;;;;;;;5.47;3.07;;;;;;;;;;6125094;23;20181;-82
2022/04/28 11:28:55;;;;;;;6.70;2.17;;;;;;;;;;6125244;23;20177;-83
2022/04/28 11:31:23;;;;;;;2.87;2.50;;;;;;;;;;6125321;23;20192;-82
2022/04/28 11:33:56;;;;;;;3.87;3.53;;;;;;;;;;6125010;23;20185;-83
2022/04/28 11:36:27;;;;;;;4.03;2.57;;;;;;;;;;6125087;23;20178;-83
2022/04/28 11:38:56;;;;;;;5.67;2.23;;;;;;;;;;6125956;23;20268;-82
2022/04/28 11:41:31;;;;;;;4.53;2.47;;;;;;;;;;6125069;23;20179;-83
2022/04/28 11:44:05;;;;;;;2.93;2.10;;;;;;;;;;6124932;23;20188;-82
2022/04/28 11:46:33;;;;;;;4.80;2.13;;;;;;;;;;6124706;23;20182;-82
2022/04/28 11:49:02;;;;;;;2.10;2.00;;;;;;;;;;6124740;23;20180;-83
2022/04/28 11:51:33;;;;;;;2.30;2.10;;;;;;;;;;6125019;23;20183;-83
2022/04/28 11:54:03;;;;;;;5.80;2.87;;;;;;;;;;6124526;23;20206;-83
2022/04/28 11:56:33;;;;;;;2.00;1.90;;;;;;;;;;6124639;23;20207;-82
2022/04/28 11:59:05;;;;;;;2.63;2.20;;;;;;;;;;6124784;23;20223;-84
2022/04/28 12:01:35;;;;;;;3.50;1.63;;;;;;;;;;6124877;23;20258;-84
2022/04/28 12:04:05;;;;;;;1.50;1.40;;;;;;;;;;6125200;23;20187;-84
2022/04/28 12:06:34;;;;;;;3.30;2.00;;;;;;;;;;6124973;23;20663;-84
2022/04/28 12:14:22;;;;;;;5.73;2.00;;;;;;;;;;6129802;23;20174;-84
2022/04/28 12:14:42;;;;;;;2.33;1.90;;;;;;;;;;6129530;23;20179;-84
2022/04/28 12:19:58;;;;;;;8.77;2.90;;;;;;;;;;6129621;23;20206;-84
2022/04/28 12:22:28;;;;;;;6.70;2.20;;;;;;;;;;6129590;23;20184;-84
2022/04/28 12:25:02;;;;;;;3.30;3.00;;;;;;;;;;6129807;23;20174;-84
2022/04/28 12:27:44;;;;;;;4.33;1.60;;;;;;;;;;6154828;23;20272;-84
2022/04/28 12:30:14;;;;;;;5.33;3.27;;;;;;;;;;6131339;23;20189;-84
2022/04/28 12:32:44;;;;;;;4.93;2.90;;;;;;;;;;6131293;23;20275;-85
2022/04/28 12:35:21;;;;;;;1.10;1.10;;;;;;;;;;6131787;23;20177;-86
2022/04/28 12:37:55;;;;;;;1.57;1.43;;;;;;;;;;6131306;23;20209;-85
2022/04/28 12:40:24;;;;;;;1.93;1.83;;;;;;;;;;6131801;23;20198;-85
2022/04/28 12:42:57;;;;;;;1.53;1.43;;;;;;;;;;6131079;23;20206;-85
2022/04/28 12:45:41;;;;;;;3.03;1.93;;;;;;;;;;6131754;23;20206;-84
2022/04/28 12:48:25;;;;;;;1.00;1.00;;;;;;;;;;6131844;23;20205;-85
2022/04/28 12:51:10;;;;;;;1.60;1.50;;;;;;;;;;6131488;23;20185;-84
2022/04/28 12:53:39;;;;;;;5.30;2.27;;;;;;;;;;6131217;23;20178;-84
2022/04/28 12:56:08;;;;;;;5.70;1.70;;;;;;;;;;6131669;23;20257;-85
2022/04/28 12:58:39;;;;;;;3.13;1.93;;;;;;;;;;6131391;23;20218;-86
2022/04/28 13:01:09;;;;;;;2.50;1.43;;;;;;;;;;6131822;23;20183;-85
2022/04/28 13:03:40;;;;;;;5.10;3.10;;;;;;;;;;6131333;23;20242;-84
2022/04/28 13:06:09;;;;;;;1.90;1.70;;;;;;;;;;6156333;23;20225;-85
2022/04/28 13:08:44;;;;;;;1.93;1.37;;;;;;;;;;6130746;23;20255;-84
2022/04/28 13:11:14;;;;;;;1.60;1.50;;;;;;;;;;6131465;23;20190;-84
2022/04/28 13:13:44;;;;;;;1.77;1.67;;;;;;;;;;6130763;23;20264;-84
2022/04/28 13:16:12;;;;;;;5.50;2.60;;;;;;;;;;6131615;23;20260;-86
2022/04/28 13:18:41;;;;;;;2.83;1.73;;;;;;;;;;6131317;23;20289;-86
2022/04/28 13:21:11;;;;;;;2.73;1.43;;;;;;;;;;6156122;23;20239;-86
2022/04/28 13:23:40;;;;;;;1.93;1.83;;;;;;;;;;6131394;23;20265;-86
2022/04/28 13:26:09;;;;;;;2.63;1.57;;;;;;;;;;6131277;23;20265;-86
2022/04/28 13:28:38;;;;;;;5.27;3.53;;;;;;;;;;6131310;23;20226;-86
2022/04/28 13:31:09;;;;;;;2.73;1.97;;;;;;;;;;6131301;23;20216;-86
2022/04/28 13:33:38;;;;;;;1.97;1.77;;;;;;;;;;6131298;23;20179;-85
2022/04/28 13:36:07;;;;;;;2.17;1.97;;;;;;;;;;6130979;23;20182;-85
2022/04/28 13:38:36;;;;;;;2.97;1.37;;;;;;;;;;6131088;23;20230;-85
2022/04/28 13:41:05;;;;;;;7.50;2.13;;;;;;;;;;6131147;23;20189;-85
2022/04/28 13:43:34;;;;;;;1.83;1.50;;;;;;;;;;6131486;23;20247;-85
2022/04/28 13:46:03;;;;;;;3.87;1.63;;;;;;;;;;6131209;23;20251;-85
2022/04/28 13:48:33;;;;;;;3.77;1.87;;;;;;;;;;6130716;23;20179;-85
2022/04/28 13:51:02;;;;;;;5.50;2.30;;;;;;;;;;6130991;23;20188;-86
2022/04/28 13:53:33;;;;;;;1.37;1.23;;;;;;;;;;6130871;23;20194;-85
2022/04/28 13:56:02;;;;;;;1.43;1.33;;;;;;;;;;6131129;23;20182;-86
2022/04/28 13:58:31;;;;;;;3.63;2.03;;;;;;;;;;6130720;23;20226;-86
2022/04/28 14:00:59;;;;;;;1.33;1.23;;;;;;;;;;6131196;23;20183;-85
2022/04/28 14:03:29;;;;;;;15.63;3.40;;;;;;;;;;6130433;23;20270;-86
2022/04/28 14:06:00;;;;;;;4.80;2.07;;;;;;;;;;6130160;23;20203;-85
2022/04/28 14:08:29;;;;;;;3.73;2.60;;;;;;;;;;6130334;23;20207;-85
2022/04/28 14:10:59;;;;;;;3.53;3.23;;;;;;;;;;6130832;23;20179;-84
2022/04/28 14:13:28;;;;;;;4.07;2.23;;;;;;;;;;6130586;23;20233;-84
2022/04/28 14:15:57;;;;;;;2.20;2.03;;;;;;;;;;6130981;23;20214;-85
2022/04/28 14:18:26;;;;;;;2.37;2.07;;;;;;;;;;6130220;23;20242;-85
2022/04/28 14:20:55;;;;;;;3.43;2.27;;;;;;;;;;6131023;23;20202;-84
2022/04/28 14:23:26;;;;;;;5.40;2.20;;;;;;;;;;6130350;23;20182;-85
2022/04/28 14:25:54;;;;;;;4.70;2.27;;;;;;;;;;6131002;23;20177;-85
2022/04/28 14:28:23;;;;;;;1.83;1.73;;;;;;;;;;6130652;23;20177;-85
2022/04/28 14:30:52;;;;;;;5.37;1.60;;;;;;;;;;6130508;23;20246;-85
2022/04/28 14:33:41;;;;;;;1.67;1.57;;;;;;;;;;6130584;23;20256;-85
2022/04/28 14:36:10;;;;;;;3.97;1.90;;;;;;;;;;6130840;23;20257;-85
2022/04/28 14:38:41;;;;;;;4.80;2.40;;;;;;;;;;6130599;23;20179;-84
2022/04/28 14:41:10;;;;;;;1.40;1.30;;;;;;;;;;6131270;23;20241;-86
2022/04/28 14:43:38;;;;;;;1.77;1.33;;;;;;;;;;6130789;23;20188;-86
2022/04/28 14:46:07;;;;;;;2.17;1.63;;;;;;;;;;6131362;23;20207;-86
2022/04/28 14:54:14;;;;;;;3.43;2.07;;;;;;;;;;6063484;23;20189;-86
2022/04/28 14:56:43;;;;;;;3.07;2.07;;;;;;;;;;6131343;23;20230;-86
2022/04/28 14:59:12;;;;;;;4.93;2.93;;;;;;;;;;6130946;23;20229;-86
2022/04/28 15:01:41;;;;;;;5.63;2.33;;;;;;;;;;6131258;23;20179;-86
2022/04/28 15:04:09;;;;;;;3.53;1.93;;;;;;;;;;6131320;23;20216;-86
2022/04/28 15:06:38;;;;;;;5.63;2.43;;;;;;;;;;6131292;23;20201;-86
2022/04/28 15:09:15;;;;;;;1.27;1.23;;;;;;;;;;6130555;23;20229;-86
2022/04/28 15:11:45;;;;;;;3.10;2.50;;;;;;;;;;6131412;23;20182;-86
2022/04/28 15:14:14;;;;;;;1.80;1.70;;;;;;;;;;6131068;23;20182;-86
2022/04/28 15:16:43;;;;;;;5.83;2.77;;;;;;;;;;6156405;23;20239;-85
2022/04/28 15:19:12;;;;;;;3.90;2.50;;;;;;;;;;6130956;23;20194;-86
2022/04/28 15:21:41;;;;;;;8.20;4.83;;;;;;;;;;6130634;23;20185;-86
2022/04/28 15:24:10;;;;;;;1.90;1.80;;;;;;;;;;6155450;23;20260;-86
2022/04/28 15:26:40;;;;;;;2.73;2.00;;;;;;;;;;6131099;23;20186;-86
2022/04/28 15:29:09;;;;;;;1.40;1.30;;;;;;;;;;6155511;23;20223;-86
2022/04/28 15:31:38;;;;;;;4.43;3.80;;;;;;;;;;6155415;23;20193;-86
2022/04/28 15:34:07;;;;;;;6.53;2.87;;;;;;;;;;6130535;23;20182;-86
2022/04/28 15:36:36;;;;;;;3.80;2.13;;;;;;;;;;6155096;23;20179;-85